KEWK/EWK METAR and TAF weather

Enter ICAO airport designator
Station Type Date Time Source
KEWK METAR 2019/10/23 19:56 UTC NOAA

KEWK 231956Z AUTO 34013G21KT 10SM CLR 19/04 A2993 RMK AO2 SLP128 T01890044


Station Type Date Time Source
KEWK Decoded METAR 2019/10/23 19:56 UTC NOAA

Newton, Newton City/County Airport, KS, United States (KEWK) 38-03N 097-17W
Oct 23, 2019 - 03:56 PM EDT / 2019.10.23 1956 UTC
Wind: from the NNW (340 degrees) at 15 MPH (13 KT) gusting to 24 MPH (21 KT):0
Visibility: 10 mile(s):0
Sky conditions: clear
Temperature: 66.0 F (18.9 C)
Dew Point: 39.9 F (4.4 C)
Relative Humidity: 38%
Pressure (altimeter): 29.93 in. Hg (1013 hPa)
ob: KEWK 231956Z AUTO 34013G21KT 10SM CLR 19/04 A2993 RMK AO2 SLP128 T01890044
cycle: 20

Station Type Date Time Source
KEWK TAF UTC NOAA

Error!

Example: see airport list